Time;durP1;ratioP1;P1;durP2;ratioP2;P2;SDS_P1;SDS_P2;PMS_P1;PMS_P2;Temp;Humidity;BMP_temperature;BMP_pressure;BME280_temperature;BME280_humidity;BME280_pressure;Samples;Min_cycle;Max_cycle;Signal;HPM_P1;HPM_P2
2022/05/25 00:00:24;;;;;;;10.63;4.93;;;;;;;8.66;100.00;101273.94;5270146;28;20035;-71
2022/05/25 00:02:55;;;;;;;13.77;4.72;;;;;;;8.67;100.00;101278.28;5271272;28;20393;-71
2022/05/25 00:05:25;;;;;;;11.90;4.95;;;;;;;8.65;100.00;101279.44;5279516;28;20024;-71
2022/05/25 00:07:58;;;;;;;11.15;4.78;;;;;;;8.66;100.00;101273.94;5274766;28;20034;-71
2022/05/25 00:10:28;;;;;;;9.52;5.00;;;;;;;8.64;100.00;101283.09;5280184;28;20026;-71
2022/05/25 00:12:59;;;;;;;10.38;4.90;;;;;;;8.61;100.00;101280.69;5276817;28;20036;-71
2022/05/25 00:15:29;;;;;;;10.80;4.68;;;;;;;8.54;100.00;101286.63;5282772;28;20381;-71
2022/05/25 00:18:00;;;;;;;10.00;5.15;;;;;;;8.51;100.00;101291.41;5277826;28;20384;-71
2022/05/25 00:20:30;;;;;;;8.27;5.40;;;;;;;8.47;100.00;101296.19;5287378;28;20116;-71
2022/05/25 00:23:02;;;;;;;7.28;4.97;;;;;;;8.43;100.00;101294.78;5287659;28;20381;-71
2022/05/25 00:25:35;;;;;;;11.68;4.30;;;;;;;8.39;100.00;101290.72;5280281;28;20103;-72
2022/05/25 00:28:08;;;;;;;9.82;4.38;;;;;;;8.34;100.00;101294.78;5265806;28;20038;-71
2022/05/25 00:30:41;;;;;;;9.85;4.40;;;;;;;8.29;100.00;101292.50;5273522;28;20031;-71
2022/05/25 00:33:12;;;;;;;10.93;4.70;;;;;;;8.26;100.00;101292.78;5287221;28;20562;-71
2022/05/25 00:35:43;;;;;;;5.55;3.90;;;;;;;8.22;100.00;101294.03;5276933;28;20027;-71
2022/05/25 00:38:13;;;;;;;5.50;4.00;;;;;;;8.16;100.00;101298.13;5266075;28;20489;-71
2022/05/25 00:40:45;;;;;;;9.70;4.47;;;;;;;8.12;100.00;101301.22;5266602;28;20020;-72
2022/05/25 00:43:15;;;;;;;7.50;4.55;;;;;;;8.10;100.00;101305.84;5271042;28;20016;-71
2022/05/25 00:45:51;;;;;;;13.85;5.22;;;;;;;8.04;100.00;101300.09;5286945;28;20100;-71
2022/05/25 00:48:23;;;;;;;;;;;;;;;8.04;100.00;101307.25;5287675;28;20071;-73
2022/05/25 00:53:47;;;;;;;10.50;4.90;;;;;;;8.06;100.00;101310.63;5266097;28;20032;-72
2022/05/25 00:56:20;;;;;;;11.20;4.90;;;;;;;8.02;100.00;101309.22;5273175;28;20090;-71
2022/05/25 00:58:57;;;;;;;8.73;5.93;;;;;;;7.98;100.00;101310.47;5291407;28;20023;-71
2022/05/25 01:01:29;;;;;;;10.02;5.38;;;;;;;7.98;100.00;101315.81;5269796;28;20082;-72
2022/05/25 01:03:59;;;;;;;10.35;4.90;;;;;;;7.97;100.00;101317.63;5270157;28;20029;-72
2022/05/25 01:06:51;;;;;;;8.23;4.60;;;;;;;7.96;100.00;101315.97;5274910;28;20024;-71
2022/05/25 01:09:39;;;;;;;9.57;5.13;;;;;;;7.95;100.00;101311.59;5284916;28;20377;-72
2022/05/25 01:12:42;;;;;;;10.68;5.90;;;;;;;7.97;100.00;101322.13;5269888;28;20077;-71
2022/05/25 01:15:23;;;;;;;8.40;4.80;;;;;;;7.93;100.00;101312.72;5283399;28;20031;-72
2022/05/25 01:18:31;;;;;;;8.02;4.70;;;;;;;7.89;100.00;101314.84;5281626;28;20024;-73
2022/05/25 01:21:36;;;;;;;8.80;4.40;;;;;;;7.89;100.00;101320.16;5269643;28;20031;-72
2022/05/25 01:24:25;;;;;;;15.43;4.40;;;;;;;7.92;100.00;101321.72;5276769;28;20034;-71
2022/05/25 01:27:15;;;;;;;6.47;4.10;;;;;;;7.90;100.00;101318.34;5286889;28;20031;-71
2022/05/25 01:30:03;;;;;;;8.57;3.75;;;;;;;7.86;100.00;101325.78;5269519;28;20560;-71
2022/05/25 01:32:41;;;;;;;7.50;3.88;;;;;;;7.84;100.00;101319.75;5269525;28;20028;-71
2022/05/25 01:35:46;;;;;;;6.65;4.03;;;;;;;7.83;100.00;101317.19;5287973;28;20024;-71
2022/05/25 01:38:35;;;;;;;11.90;4.45;;;;;;;7.84;100.00;101318.91;5272767;28;20028;-70
2022/05/25 01:41:12;;;;;;;7.38;4.57;;;;;;;7.90;100.00;101323.69;5269439;28;20034;-71
2022/05/25 01:43:51;;;;;;;13.80;4.85;;;;;;;7.92;100.00;101329.72;5290847;28;20106;-71
2022/05/25 01:46:25;;;;;;;9.88;4.32;;;;;;;7.91;100.00;101331.56;5272732;28;20393;-72
2022/05/25 01:49:02;;;;;;;13.93;5.18;;;;;;;7.94;100.00;101330.44;5269496;28;20098;-72
2022/05/25 01:51:40;;;;;;;9.68;4.88;;;;;;;7.99;100.00;101333.56;5268532;28;20396;-71
2022/05/25 01:54:17;;;;;;;8.18;4.43;;;;;;;7.99;100.00;101328.22;5282715;28;20406;-72
2022/05/25 01:56:53;;;;;;;7.45;4.47;;;;;;;8.01;100.00;101326.22;5269441;28;20032;-71
2022/05/25 01:59:24;;;;;;;7.13;4.30;;;;;;;7.96;100.00;101325.81;5287262;28;20024;-71
2022/05/25 02:04:56;;;;;;;8.82;3.90;;;;;;;7.89;100.00;101332.69;5278358;28;20481;-72
2022/05/25 02:08:02;;;;;;;6.43;3.95;;;;;;;7.84;100.00;101335.75;5288884;28;20028;-71
2022/05/25 02:10:49;;;;;;;6.72;3.60;;;;;;;7.85;100.00;101336.59;5289982;28;20496;-72
2022/05/25 02:14:03;;;;;;;12.20;4.70;;;;;;;7.79;100.00;101335.34;5290026;27;20031;-72
2022/05/25 02:16:53;;;;;;;14.90;4.57;;;;;;;7.77;100.00;101334.59;5268284;28;20046;-72
2022/05/25 02:19:35;;;;;;;12.18;5.10;;;;;;;7.75;100.00;101329.41;5268704;28;20028;-72
2022/05/25 02:22:28;;;;;;;10.45;4.05;;;;;;;7.74;100.00;101334.91;5282143;28;20074;-72
2022/05/25 02:25:08;;;;;;;9.30;3.38;;;;;;;7.73;100.00;101338.53;5282319;28;20115;-72
2022/05/25 02:27:46;;;;;;;15.98;4.40;;;;;;;7.68;100.00;101338.97;5289391;27;20109;-71
2022/05/25 02:30:21;;;;;;;12.38;4.60;;;;;;;7.68;100.00;101343.44;5285105;28;20105;-71
2022/05/25 02:32:59;;;;;;;15.27;4.97;;;;;;;7.69;100.00;101342.47;5281066;28;20030;-71
2022/05/25 02:35:33;;;;;;;12.18;5.22;;;;;;;7.66;100.00;101348.91;5289128;27;20024;-71
2022/05/25 02:38:06;;;;;;;11.77;6.55;;;;;;;7.65;100.00;101343.72;5273220;28;20032;-71
2022/05/25 02:40:39;;;;;;;14.00;6.00;;;;;;;7.65;100.00;101344.56;5278558;28;20023;-71
2022/05/25 02:43:10;;;;;;;8.63;4.60;;;;;;;7.62;100.00;101349.31;5271254;28;20020;-71
2022/05/25 02:45:42;;;;;;;18.40;5.10;;;;;;;7.57;100.00;101349.72;5267801;28;20552;-72
2022/05/25 02:48:12;;;;;;;14.02;4.95;;;;;;;7.50;100.00;101357.44;5281643;28;20054;-70
2022/05/25 02:50:43;;;;;;;8.35;4.25;;;;;;;7.43;100.00;101353.63;5281432;28;20088;-71
2022/05/25 02:53:13;;;;;;;17.25;4.32;;;;;;;7.38;100.00;101361.19;5268478;28;20024;-71
2022/05/25 02:55:44;;;;;;;10.13;4.32;;;;;;;7.33;100.00;101360.72;5267588;28;20381;-71
2022/05/25 02:58:14;;;;;;;11.05;4.47;;;;;;;7.31;100.00;101364.50;5267653;28;20071;-71
2022/05/25 03:00:45;;;;;;;16.08;5.35;;;;;;;7.29;100.00;101361.97;5281727;28;20372;-71
2022/05/25 03:03:15;;;;;;;8.32;4.50;;;;;;;7.28;100.00;101365.63;5278009;28;20034;-71
2022/05/25 03:05:45;;;;;;;11.98;4.85;;;;;;;7.27;100.00;101363.91;5275294;28;20393;-71
2022/05/25 03:08:16;;;;;;;9.52;5.25;;;;;;;7.26;100.00;101365.72;5276949;28;20020;-70
2022/05/25 03:10:47;;;;;;;15.88;5.70;;;;;;;7.26;100.00;101364.88;5282985;28;20038;-71
2022/05/25 03:13:18;;;;;;;14.20;5.70;;;;;;;7.23;100.00;101368.69;5281243;28;20028;-71
2022/05/25 03:15:48;;;;;;;12.40;5.53;;;;;;;7.21;100.00;101364.44;5277741;27;20016;-70
2022/05/25 03:18:19;;;;;;;18.40;5.80;;;;;;;7.18;100.00;101365.56;5268329;28;20493;-69
2022/05/25 03:20:50;;;;;;;16.48;5.72;;;;;;;7.18;100.00;101378.06;5288880;28;20023;-72
2022/05/25 03:23:20;;;;;;;16.25;5.93;;;;;;;7.17;100.00;101381.69;5288390;28;20039;-70
2022/05/25 03:25:51;;;;;;;13.88;5.63;;;;;;;7.14;100.00;101379.28;5279845;28;20047;-70
2022/05/25 03:28:21;;;;;;;15.93;6.32;;;;;;;7.11;100.00;101388.38;5284659;28;20032;-71
2022/05/25 03:30:52;;;;;;;11.80;6.03;;;;;;;7.09;100.00;101389.50;5278041;28;20028;-70
2022/05/25 03:33:22;;;;;;;17.55;5.55;;;;;;;7.05;100.00;101385.41;5280907;28;20019;-70
2022/05/25 03:35:53;;;;;;;10.18;5.50;;;;;;;7.01;100.00;101391.00;5266903;28;20474;-70
2022/05/25 03:38:23;;;;;;;9.95;5.03;;;;;;;6.98;100.00;101396.59;5267816;28;20016;-71
2022/05/25 03:40:55;;;;;;;18.00;5.85;;;;;;;6.93;100.00;101393.47;5267202;28;20016;-69
2022/05/25 03:43:33;;;;;;;13.60;5.88;;;;;;;6.92;100.00;101402.44;5287203;28;20047;-70
2022/05/25 03:46:04;;;;;;;15.00;5.60;;;;;;;6.92;100.00;101407.78;5287396;28;20022;-71
2022/05/25 03:48:34;;;;;;;16.58;6.07;;;;;;;6.89;100.00;101408.03;5288104;28;20020;-70
2022/05/25 03:51:05;;;;;;;34.50;5.72;;;;;;;6.84;100.00;101423.59;5287566;28;20024;-70
2022/05/25 03:53:35;;;;;;;17.45;6.75;;;;;;;6.82;100.00;101422.84;5277848;28;20051;-70
2022/05/25 03:56:06;;;;;;;21.15;6.60;;;;;;;6.84;100.00;101428.09;5266589;28;20043;-70
2022/05/25 03:58:37;;;;;;;18.00;6.68;;;;;;;6.89;100.00;101417.88;5266594;28;20039;-71
2022/05/25 04:01:07;;;;;;;17.23;6.90;;;;;;;6.97;100.00;101415.38;5285439;28;20019;-71
2022/05/25 04:03:38;;;;;;;19.70;6.75;;;;;;;7.01;100.00;101417.66;5275411;28;20032;-70
2022/05/25 04:06:08;;;;;;;43.85;7.50;;;;;;;7.01;100.00;101422.16;5286261;28;20076;-71
2022/05/25 04:08:38;;;;;;;58.47;5.50;;;;;;;6.93;100.00;101433.50;5273836;28;20035;-70
2022/05/25 04:11:09;;;;;;;27.70;5.50;;;;;;;6.95;100.00;101425.34;5266197;28;20024;-70
2022/05/25 04:13:39;;;;;;;14.52;5.68;;;;;;;6.93;100.00;101430.81;5281404;28;20481;-70
2022/05/25 04:16:10;;;;;;;265.38;13.77;;;;;;;6.90;100.00;101436.41;5278474;28;20020;-70
2022/05/25 04:18:40;;;;;;;12.38;5.70;;;;;;;6.92;100.00;101430.94;5280078;28;20020;-71
2022/05/25 04:21:11;;;;;;;15.68;6.80;;;;;;;6.98;100.00;101433.94;5266229;28;20024;-71
2022/05/25 04:23:42;;;;;;;14.05;6.90;;;;;;;7.10;100.00;101425.88;5268137;28;20055;-70
2022/05/25 04:26:12;;;;;;;14.48;5.90;;;;;;;7.17;100.00;101427.03;5276171;28;20027;-70
2022/05/25 04:28:43;;;;;;;21.45;8.88;;;;;;;7.24;100.00;101421.06;5266015;28;20034;-70
2022/05/25 04:31:13;;;;;;;24.92;9.25;;;;;;;7.40;100.00;101425.09;5277783;28;20050;-70
2022/05/25 04:33:44;;;;;;;16.05;8.00;;;;;;;7.48;100.00;101423.47;5281356;28;20012;-71
2022/05/25 04:36:15;;;;;;;16.30;7.50;;;;;;;7.57;100.00;101424.47;5265607;28;20035;-70
2022/05/25 04:38:46;;;;;;;27.48;8.18;;;;;;;7.63;100.00;101434.66;5278698;28;20012;-70
2022/05/25 04:41:16;;;;;;;18.63;7.72;;;;;;;7.72;100.00;101430.31;5279564;28;20369;-71
2022/05/25 04:43:47;;;;;;;24.42;7.68;;;;;;;7.81;100.00;101432.19;5266435;28;20027;-71
2022/05/25 04:46:17;;;;;;;22.30;8.02;;;;;;;7.89;100.00;101432.38;5269076;28;20111;-70
2022/05/25 04:48:48;;;;;;;25.20;7.75;;;;;;;7.99;100.00;101435.94;5286805;28;20507;-70
2022/05/25 04:51:18;;;;;;;22.65;8.90;;;;;;;8.08;100.00;101438.75;5286954;28;20085;-70
2022/05/25 04:53:49;;;;;;;22.52;7.68;;;;;;;8.16;100.00;101438.94;5274265;28;20044;-71
2022/05/25 04:59:08;;;;;;;22.15;7.97;;;;;;;8.46;100.00;101446.06;5279264;28;20384;-70
2022/05/25 05:01:38;;;;;;;21.02;7.60;;;;;;;8.62;100.00;101445.53;5265952;28;20024;-72
2022/05/25 05:04:09;;;;;;;19.45;7.53;;;;;;;8.75;100.00;101441.59;5265608;28;20016;-70
2022/05/25 05:06:39;;;;;;;21.65;7.82;;;;;;;8.90;100.00;101449.22;5276355;28;20077;-70
2022/05/25 05:09:10;;;;;;;18.63;6.90;;;;;;;9.07;100.00;101449.34;5282379;28;20497;-70
2022/05/25 05:11:44;;;;;;;15.75;7.03;;;;;;;9.21;100.00;101445.38;5265922;28;20092;-70
2022/05/25 05:14:15;;;;;;;17.92;7.30;;;;;;;9.33;100.00;101444.22;5270020;28;20035;-69
2022/05/25 05:16:45;;;;;;;15.48;6.60;;;;;;;9.46;100.00;101459.16;5265833;28;20028;-70
2022/05/25 05:19:16;;;;;;;19.60;6.88;;;;;;;9.58;100.00;101453.47;5273703;28;20032;-70
2022/05/25 05:21:46;;;;;;;14.13;6.72;;;;;;;9.71;100.00;101452.34;5271021;28;20489;-70
2022/05/25 05:24:17;;;;;;;21.90;6.82;;;;;;;9.80;100.00;101463.03;5275089;28;20098;-70
2022/05/25 05:26:47;;;;;;;16.05;5.68;;;;;;;9.89;100.00;101460.44;5269812;28;20028;-70
2022/05/25 05:29:18;;;;;;;12.05;5.43;;;;;;;10.05;100.00;101460.69;5276082;28;20030;-70
2022/05/25 05:31:49;;;;;;;14.52;5.63;;;;;;;10.13;100.00;101455.41;5268709;28;20397;-70
2022/05/25 05:34:19;;;;;;;15.48;4.93;;;;;;;10.28;100.00;101447.75;5276574;28;20025;-69
2022/05/25 05:36:54;;;;;;;9.35;4.53;;;;;;;10.43;100.00;101454.28;5280968;28;20134;-70
2022/05/25 05:39:29;;;;;;;11.35;4.82;;;;;;;10.68;100.00;101447.34;5265543;28;20064;-70
2022/05/25 05:42:03;;;;;;;14.13;4.80;;;;;;;10.84;100.00;101442.16;5273625;28;20051;-70
2022/05/25 05:44:40;;;;;;;11.40;4.57;;;;;;;11.01;100.00;101442.28;5274290;28;20020;-70
2022/05/25 05:47:15;;;;;;;15.13;4.30;;;;;;;11.12;100.00;101445.56;5269232;28;20282;-70
2022/05/25 05:49:46;;;;;;;;;;;;;;;11.27;100.00;101439.66;5288257;28;20437;-69
2022/05/25 05:52:17;;;;;;;12.48;4.10;;;;;;;11.42;100.00;101448.81;5290337;28;19912;-70
2022/05/25 05:54:47;;;;;;;9.60;3.40;;;;;;;11.64;100.00;101450.97;5269817;27;20126;-71
2022/05/25 05:57:18;;;;;;;8.95;3.90;;;;;;;12.28;100.00;101456.88;5269018;28;20132;-71
2022/05/25 05:59:48;;;;;;;11.40;3.42;;;;;;;12.97;100.00;101454.84;5282218;28;20023;-71
2022/05/25 06:02:19;;;;;;;7.90;2.90;;;;;;;13.76;100.00;101463.25;5268796;28;20034;-71
2022/05/25 06:04:50;;;;;;;6.57;2.72;;;;;;;14.32;100.00;101458.69;5268904;28;20385;-71
2022/05/25 06:07:20;;;;;;;10.00;2.65;;;;;;;14.93;100.00;101459.69;5277186;28;20541;-70
2022/05/25 06:09:51;;;;;;;6.43;2.63;;;;;;;15.17;100.00;101462.22;5279678;28;20091;-70
2022/05/25 06:12:21;;;;;;;8.88;2.88;;;;;;;16.05;100.00;101448.00;5271257;28;20020;-71
2022/05/25 06:14:52;;;;;;;6.80;2.28;;;;;;;15.47;100.00;101446.91;5280707;28;20388;-70
2022/05/25 06:20:11;;;;;;;16.48;3.88;;;;;;;16.25;100.00;101463.66;5281786;28;20397;-70
2022/05/25 06:22:41;;;;;;;8.55;3.10;;;;;;;16.29;100.00;101463.09;5278361;28;20053;-72
2022/05/25 06:25:12;;;;;;;9.13;3.15;;;;;;;15.98;100.00;101459.75;5285747;28;20031;-71
2022/05/25 06:27:42;;;;;;;5.30;2.88;;;;;;;16.46;100.00;101457.44;5268641;28;20397;-71
2022/05/25 06:30:13;;;;;;;6.22;2.55;;;;;;;16.69;100.00;101460.03;5272962;28;20047;-69
2022/05/25 06:32:43;;;;;;;8.68;3.25;;;;;;;16.41;100.00;101460.72;5277167;28;20023;-69
2022/05/25 06:35:14;;;;;;;6.35;2.50;;;;;;;16.92;100.00;101468.00;5268047;28;20020;-69
2022/05/25 06:37:45;;;;;;;6.95;2.42;;;;;;;16.53;100.00;101466.50;5268635;28;20028;-69
2022/05/25 06:40:16;;;;;;;8.05;3.13;;;;;;;16.94;100.00;101472.22;5275309;28;20028;-69
2022/05/25 06:42:46;;;;;;;9.85;2.72;;;;;;;17.24;100.00;101475.63;5289216;28;20469;-69
2022/05/25 06:45:17;;;;;;;11.73;3.50;;;;;;;16.71;100.00;101469.66;5288653;28;20430;-69
2022/05/25 06:47:48;;;;;;;9.77;2.50;;;;;;;17.42;100.00;101468.88;5289160;28;20473;-69
2022/05/25 06:50:18;;;;;;;9.45;2.67;;;;;;;17.43;100.00;101467.88;5289207;28;20022;-70
2022/05/25 06:52:50;;;;;;;7.95;2.63;;;;;;;17.34;100.00;101483.44;5275318;28;20039;-69
2022/05/25 06:55:21;;;;;;;6.38;2.60;;;;;;;17.71;100.00;101484.97;5288630;28;20049;-69
2022/05/25 06:57:52;;;;;;;9.20;2.70;;;;;;;17.91;100.00;101485.13;5288725;28;20027;-69
2022/05/25 07:00:22;;;;;;;9.57;2.40;;;;;;;17.33;100.00;101489.91;5288986;28;20020;-69
2022/05/25 07:02:53;;;;;;;9.10;2.30;;;;;;;17.75;100.00;101497.13;5269299;28;20119;-69
2022/05/25 07:05:24;;;;;;;5.78;2.33;;;;;;;18.04;100.00;101496.09;5281727;28;20019;-69
2022/05/25 07:07:55;;;;;;;6.90;2.28;;;;;;;18.61;100.00;101494.88;5284562;28;20023;-69
2022/05/25 07:10:25;;;;;;;8.57;2.33;;;;;;;18.14;100.00;101498.44;5288428;28;20393;-69
2022/05/25 07:12:57;;;;;;;5.88;2.50;;;;;;;17.99;100.00;101503.16;5288878;28;20027;-69
2022/05/25 07:15:27;;;;;;;7.55;2.67;;;;;;;18.10;100.00;101499.88;5288054;28;20026;-69
2022/05/25 07:17:57;;;;;;;5.57;2.38;;;;;;;17.77;100.00;101494.22;5288859;28;20031;-69
2022/05/25 07:20:28;;;;;;;8.65;2.20;;;;;;;18.22;100.00;101497.41;5270864;28;20024;-69
2022/05/25 07:22:59;;;;;;;5.05;2.58;;;;;;;17.89;100.00;101497.25;5278393;28;20019;-69
2022/05/25 07:25:30;;;;;;;9.45;3.10;;;;;;;18.35;100.00;101501.06;5274542;28;20028;-69
2022/05/25 07:28:01;;;;;;;7.72;2.55;;;;;;;18.54;100.00;101498.63;5275681;28;20046;-69
2022/05/25 07:30:32;;;;;;;9.88;2.63;;;;;;;19.00;100.00;101504.25;5287434;28;20031;-70
2022/05/25 07:33:04;;;;;;;6.28;2.10;;;;;;;19.37;100.00;101512.88;5274261;28;20016;-69
2022/05/25 07:35:37;;;;;;;11.60;2.75;;;;;;;18.82;100.00;101512.13;5288148;28;20032;-70
2022/05/25 07:38:07;;;;;;;10.05;2.58;;;;;;;19.87;100.00;101510.59;5271851;28;21347;-69
2022/05/25 07:40:41;;;;;;;7.20;2.08;;;;;;;19.52;100.00;101507.22;5263620;28;20028;-70
2022/05/25 07:43:15;;;;;;;5.57;1.90;;;;;;;18.85;100.00;101514.44;5273863;28;20308;-70
2022/05/25 07:45:46;;;;;;;4.50;1.83;;;;;;;20.09;100.00;101503.03;5284857;28;20023;-70
2022/05/25 07:48:17;;;;;;;7.20;1.98;;;;;;;20.26;100.00;101514.28;5285067;28;20427;-70
2022/05/25 07:50:47;;;;;;;5.75;2.10;;;;;;;19.94;100.00;101511.41;5271409;28;20031;-69
2022/05/25 07:56:07;;;;;;;9.65;1.80;;;;;;;19.42;100.00;101515.78;5270888;28;20027;-70
2022/05/25 07:58:37;;;;;;;6.93;1.92;;;;;;;19.86;100.00;101512.47;5273616;28;20092;-69
2022/05/25 08:01:12;;;;;;;6.82;1.65;;;;;;;20.07;100.00;101516.00;5283327;28;20594;-70
2022/05/25 08:06:38;;;;;;;6.40;1.77;;;;;;;20.38;100.00;101518.88;5283580;28;20594;-70
2022/05/25 08:09:08;;;;;;;4.72;1.80;;;;;;;19.31;100.00;101533.56;5280271;28;20217;-70
2022/05/25 08:11:39;;;;;;;5.55;1.75;;;;;;;20.10;100.00;101521.84;5275933;28;20028;-70
2022/05/25 08:14:09;;;;;;;5.82;1.63;;;;;;;19.95;100.00;101534.03;5284231;28;20156;-70
2022/05/25 08:16:39;;;;;;;5.85;2.30;;;;;;;18.70;100.00;101530.91;5285389;28;20054;-70
2022/05/25 08:19:10;;;;;;;5.35;1.40;;;;;;;18.65;100.00;101525.22;5284564;28;20504;-70
2022/05/25 08:21:40;;;;;;;4.68;1.52;;;;;;;18.78;100.00;101524.47;5284060;28;20047;-70
2022/05/25 08:24:11;;;;;;;5.57;1.23;;;;;;;19.14;100.00;101521.44;5271553;28;20064;-69
2022/05/25 08:26:41;;;;;;;5.47;1.30;;;;;;;19.09;100.00;101537.53;5284528;28;20119;-70
2022/05/25 08:29:12;;;;;;;4.90;0.95;;;;;;;18.49;100.00;101536.44;5284370;28;20020;-70
2022/05/25 08:31:43;;;;;;;3.22;1.30;;;;;;;17.79;100.00;101536.41;5284841;28;20115;-70
2022/05/25 08:34:13;;;;;;;3.22;0.90;;;;;;;18.19;100.00;101533.97;5284610;28;20024;-70
2022/05/25 08:36:43;;;;;;;3.13;1.08;;;;;;;18.57;100.00;101528.09;5284664;28;20126;-70
2022/05/25 08:39:14;;;;;;;6.88;0.82;;;;;;;18.98;100.00;101536.25;5284328;28;20026;-71
2022/05/25 08:41:48;;;;;;;5.65;1.10;;;;;;;18.80;100.00;101533.25;5278126;28;20024;-70
2022/05/25 08:44:23;;;;;;;3.92;1.00;;;;;;;19.59;100.00;101535.28;5277269;28;20027;-70
2022/05/25 08:46:57;;;;;;;3.33;0.80;;;;;;;19.71;100.00;101540.97;5284562;28;20051;-70
2022/05/25 08:49:31;;;;;;;3.33;1.15;;;;;;;19.63;100.00;101536.59;5270663;28;20020;-70
2022/05/25 08:52:04;;;;;;;6.32;1.08;;;;;;;18.84;99.66;101532.66;5284405;28;20023;-70
2022/05/25 08:54:36;;;;;;;6.90;1.23;;;;;;;19.00;100.00;101525.16;5283863;28;20543;-70
2022/05/25 08:57:17;;;;;;;10.32;1.10;;;;;;;18.77;100.00;101528.22;5272510;28;20494;-70
2022/05/25 08:59:54;;;;;;;2.50;1.10;;;;;;;19.34;100.00;101530.47;5276991;28;20024;-70
2022/05/25 09:02:58;;;;;;;4.30;1.40;;;;;;;19.59;99.88;101538.00;5278746;28;20028;-70
2022/05/25 09:05:46;;;;;;;6.65;1.50;;;;;;;20.34;93.01;101527.69;5269756;28;20032;-70
2022/05/25 09:08:42;;;;;;;4.80;0.90;;;;;;;20.83;96.63;101539.88;5281999;28;20028;-70
2022/05/25 09:11:16;;;;;;;2.72;0.90;;;;;;;21.53;84.27;101529.78;5270723;28;20130;-70
2022/05/25 09:14:07;;;;;;;4.47;1.00;;;;;;;21.77;94.95;101530.84;5270798;28;20028;-70
2022/05/25 09:16:40;;;;;;;5.05;1.50;;;;;;;21.80;87.53;101516.75;5263027;28;20186;-70
2022/05/25 09:19:29;;;;;;;4.88;1.00;;;;;;;20.82;85.11;101530.00;5280879;28;20389;-70
2022/05/25 09:22:05;;;;;;;2.85;1.10;;;;;;;20.41;91.93;101532.03;5280696;28;20028;-70
2022/05/25 09:24:36;;;;;;;1.90;0.93;;;;;;;19.86;90.08;101533.41;5279132;28;20077;-70
2022/05/25 09:27:11;;;;;;;5.22;1.13;;;;;;;20.51;93.28;101528.06;5281552;28;20031;-70
2022/05/25 09:29:41;;;;;;;5.40;0.90;;;;;;;20.74;84.17;101531.13;5278406;28;20023;-70
2022/05/25 09:32:35;;;;;;;4.88;0.90;;;;;;;20.40;83.54;101524.91;5274089;28;20403;-71
2022/05/25 09:35:13;;;;;;;5.70;0.90;;;;;;;20.37;86.75;101529.97;5284354;28;20485;-70
2022/05/25 09:37:55;;;;;;;3.53;0.95;;;;;;;20.25;88.34;101521.63;5279946;28;20035;-70
2022/05/25 09:40:43;;;;;;;5.43;1.60;;;;;;;20.16;84.65;101522.91;5266633;28;20309;-70
2022/05/25 09:43:20;;;;;;;7.22;0.80;;;;;;;19.18;88.57;101530.84;5280905;28;20055;-70
2022/05/25 09:45:55;;;;;;;3.65;0.90;;;;;;;18.83;100.00;101532.84;5266852;28;20016;-70
2022/05/25 09:48:26;;;;;;;2.13;0.53;;;;;;;19.84;85.85;101539.09;5274493;28;20114;-70
2022/05/25 09:51:24;;;;;;;8.75;1.23;;;;;;;19.63;86.12;101539.31;5287589;28;20049;-70
2022/05/25 09:54:01;;;;;;;7.15;0.77;;;;;;;18.98;84.95;101538.13;5288466;28;20024;-70
2022/05/25 09:56:37;;;;;;;5.97;0.80;;;;;;;18.87;89.46;101542.25;5267412;28;20016;-70
2022/05/25 09:59:14;;;;;;;2.63;1.20;;;;;;;19.15;87.14;101544.84;5281891;28;20060;-70
2022/05/25 10:01:48;;;;;;;3.88;1.08;;;;;;;19.02;88.20;101550.25;5287722;28;20020;-70
2022/05/25 10:07:37;;;;;;;3.22;0.70;;;;;;;19.82;86.05;101548.50;5287309;28;20110;-70
2022/05/25 10:10:11;;;;;;;4.85;0.77;;;;;;;20.26;77.86;101545.06;5274421;28;20046;-70
2022/05/25 10:12:44;;;;;;;6.17;0.67;;;;;;;20.49;77.09;101544.63;5274595;28;20023;-71
2022/05/25 10:15:29;;;;;;;5.50;0.88;;;;;;;19.81;84.75;101547.66;5286756;28;20024;-70
2022/05/25 10:18:00;;;;;;;0.97;0.60;;;;;;;20.34;78.63;101539.41;5276734;28;20028;-70
2022/05/25 10:20:45;;;;;;;2.65;0.77;;;;;;;19.97;76.48;101548.28;5270978;28;20019;-70
2022/05/25 10:23:30;;;;;;;1.10;0.40;;;;;;;19.53;82.92;101550.56;5287244;28;20034;-70
2022/05/25 10:26:15;;;;;;;3.78;0.80;;;;;;;19.79;81.13;101548.94;5276415;27;20482;-70
2022/05/25 10:28:52;;;;;;;2.57;0.93;;;;;;;19.96;82.48;101541.16;5279208;28;20039;-70
2022/05/25 10:37:27;;;;;;;7.93;1.55;;;;;;;19.11;81.96;101540.88;5277093;28;20047;-70
2022/05/25 10:40:01;;;;;;;5.68;1.17;;;;;;;18.46;83.59;101553.97;5270211;28;20027;-70
2022/05/25 10:42:56;;;;;;;5.72;0.77;;;;;;;18.30;86.67;101544.28;5287199;28;20137;-70
2022/05/25 10:45:41;;;;;;;3.03;1.00;;;;;;;19.08;86.49;101550.28;5286889;28;20059;-70
2022/05/25 10:48:48;;;;;;;4.47;0.93;;;;;;;19.66;83.58;101542.44;5286815;27;20019;-70
2022/05/25 10:51:28;;;;;;;5.45;0.75;;;;;;;19.71;78.17;101541.81;5281761;28;20070;-70
2022/05/25 10:57:21;;;;;;;9.65;1.05;;;;;;;20.38;79.50;101532.50;5265497;28;20020;-70
2022/05/25 11:00:06;;;;;;;12.43;1.05;;;;;;;20.18;77.57;101527.09;5273305;28;20028;-70
2022/05/25 11:02:55;;;;;;;2.53;0.70;;;;;;;19.99;73.71;101529.84;5273037;28;20536;-70
2022/05/25 11:05:41;;;;;;;5.57;0.70;;;;;;;19.40;77.92;101526.91;5272791;28;20381;-70
2022/05/25 11:08:42;;;;;;;4.32;0.90;;;;;;;20.01;78.34;101527.75;5274915;28;20088;-70
2022/05/25 11:11:30;;;;;;;5.75;1.33;;;;;;;20.19;78.04;101527.94;5272634;28;20020;-70
2022/05/25 11:14:26;;;;;;;3.10;0.80;;;;;;;20.13;74.40;101542.38;5279284;28;20439;-70
2022/05/25 11:16:58;;;;;;;;;;;;;;;20.50;73.78;101542.75;5273312;28;20012;-70
2022/05/25 11:20:06;;;;;;;3.42;0.60;;;;;;;19.85;73.24;101545.34;5274528;28;19908;-70
2022/05/25 11:23:06;;;;;;;6.03;0.82;;;;;;;19.55;80.65;101525.88;5272022;28;20094;-70
2022/05/25 11:25:43;;;;;;;2.08;0.73;;;;;;;20.29;82.40;101531.03;5285476;28;20034;-71
2022/05/25 11:28:41;;;;;;;3.08;0.88;;;;;;;20.74;77.08;101538.47;5285385;28;20023;-70
2022/05/25 11:31:36;;;;;;;1.48;0.55;;;;;;;21.14;75.38;101534.47;5285452;28;20459;-70
2022/05/25 11:34:33;;;;;;;3.50;0.75;;;;;;;20.23;72.12;101525.59;5273408;28;20017;-70
2022/05/25 11:37:27;;;;;;;1.10;0.30;;;;;;;19.82;69.97;101533.00;5283253;28;20031;-70
2022/05/25 11:40:21;;;;;;;3.90;0.88;;;;;;;19.70;72.20;101540.13;5284452;28;20083;-70
2022/05/25 11:43:08;;;;;;;6.43;0.60;;;;;;;19.38;73.65;101536.34;5272469;28;20485;-70
2022/05/25 11:45:58;;;;;;;3.33;0.77;;;;;;;19.29;74.93;101532.97;5285638;28;20054;-70
2022/05/25 11:48:46;;;;;;;7.18;0.73;;;;;;;19.47;76.16;101529.63;5285947;28;20059;-70
2022/05/25 11:51:52;;;;;;;4.57;1.20;;;;;;;19.54;73.93;101540.53;5285102;28;20027;-70
2022/05/25 11:54:57;;;;;;;3.33;0.73;;;;;;;19.36;71.66;101527.50;5285096;28;20055;-70
2022/05/25 11:57:47;;;;;;;9.43;1.05;;;;;;;19.31;71.31;101525.41;5285368;28;20016;-70
2022/05/25 12:00:30;;;;;;;3.38;0.70;;;;;;;18.97;75.90;101539.16;5284905;28;20423;-70
2022/05/25 12:03:30;;;;;;;2.67;0.85;;;;;;;18.92;76.75;101528.88;5271626;28;20016;-70
2022/05/25 12:06:25;;;;;;;5.18;1.00;;;;;;;19.06;77.13;101536.03;5285135;28;20020;-70
2022/05/25 12:09:46;;;;;;;6.13;0.73;;;;;;;19.36;78.47;101535.69;5285065;28;20035;-70
2022/05/25 12:12:27;;;;;;;5.78;1.40;;;;;;;19.51;77.40;101530.03;5282797;28;20040;-70
2022/05/25 12:15:16;;;;;;;1.27;0.60;;;;;;;19.67;73.97;101525.03;5284500;28;20024;-70
2022/05/25 12:18:06;;;;;;;2.90;0.70;;;;;;;20.15;72.92;101521.22;5284867;28;20019;-70
2022/05/25 12:20:47;;;;;;;2.08;0.77;;;;;;;20.12;73.33;101527.09;5270449;27;20035;-70
2022/05/25 12:23:23;;;;;;;5.90;0.68;;;;;;;19.75;70.14;101534.91;5284510;28;20034;-70
2022/05/25 12:25:59;;;;;;;2.55;0.57;;;;;;;19.55;70.34;101523.97;5284325;28;20016;-70
2022/05/25 12:28:36;;;;;;;5.95;1.27;;;;;;;19.32;72.54;101526.25;5270656;28;20468;-70
2022/05/25 12:31:14;;;;;;;3.45;0.70;;;;;;;19.69;72.28;101534.91;5273071;28;20028;-70